Time;durP1;ratioP1;P1;durP2;ratioP2;P2;SDS_P1;SDS_P2;PMS_P1;PMS_P2;Temp;Humidity;BMP_temperature;BMP_pressure;BME280_temperature;BME280_humidity;BME280_pressure;Samples;Min_cycle;Max_cycle;Signal;HPM_P1;HPM_P2
2023/09/18 00:00:12;;;;;;;10.03;7.55;;;;;;;15.16;71.45;101128.69;1663628;86;21110;-69
2023/09/18 00:02:41;;;;;;;11.50;6.95;;;;;;;15.13;71.62;101128.27;1663590;86;21144;-69
2023/09/18 00:05:11;;;;;;;10.43;7.33;;;;;;;15.11;71.71;101129.00;1663559;86;21105;-69
2023/09/18 00:07:39;;;;;;;10.08;7.25;;;;;;;15.09;71.80;101129.22;1663681;86;21053;-71
2023/09/18 00:10:11;;;;;;;9.68;7.17;;;;;;;15.10;71.89;101125.92;1663635;86;21097;-70
2023/09/18 00:12:40;;;;;;;9.60;7.15;;;;;;;15.11;71.92;101131.23;1663704;86;21121;-70
2023/09/18 00:15:10;;;;;;;12.95;7.87;;;;;;;15.12;71.88;101133.46;1663775;86;21066;-68
2023/09/18 00:17:39;;;;;;;11.15;6.78;;;;;;;15.12;71.90;101129.32;1663539;86;21093;-68
2023/09/18 00:20:09;;;;;;;10.82;7.12;;;;;;;15.13;71.73;101126.88;1663617;85;21041;-71
2023/09/18 00:22:38;;;;;;;11.43;7.12;;;;;;;15.12;71.62;101119.66;1663726;86;21057;-70
2023/09/18 00:25:08;;;;;;;12.60;7.53;;;;;;;15.11;71.51;101118.81;1663584;86;21089;-70
2023/09/18 00:27:36;;;;;;;11.45;7.47;;;;;;;15.12;71.48;101121.89;1663826;86;21049;-68
2023/09/18 00:30:07;;;;;;;9.50;6.60;;;;;;;15.14;71.41;101125.83;1663526;85;21037;-70
2023/09/18 00:32:36;;;;;;;12.28;7.22;;;;;;;15.14;71.25;101119.77;1663490;86;21045;-70
2023/09/18 00:35:05;;;;;;;11.60;6.50;;;;;;;15.15;71.07;101124.77;1663619;85;21081;-70
2023/09/18 00:37:34;;;;;;;10.70;7.10;;;;;;;15.17;70.90;101128.16;1663819;86;21069;-70
2023/09/18 00:40:04;;;;;;;10.80;7.10;;;;;;;15.16;70.73;101127.84;1663656;86;21069;-70
2023/09/18 00:42:33;;;;;;;12.07;6.45;;;;;;;15.14;70.72;101126.67;1663531;85;21484;-69
2023/09/18 00:45:03;;;;;;;9.75;6.83;;;;;;;15.14;70.66;101125.83;1663649;86;21018;-70
2023/09/18 00:47:33;;;;;;;9.90;6.70;;;;;;;15.13;70.64;101131.87;1663810;86;21504;-68
2023/09/18 00:50:03;;;;;;;9.48;6.62;;;;;;;15.09;70.54;101126.45;1663580;85;21078;-68
2023/09/18 00:52:32;;;;;;;7.95;6.20;;;;;;;15.08;70.58;101128.04;1663714;86;21041;-68
2023/09/18 00:55:01;;;;;;;10.45;6.70;;;;;;;15.07;70.62;101126.34;1663616;86;21058;-68
2023/09/18 00:57:30;;;;;;;10.80;6.17;;;;;;;15.05;70.61;101126.55;1663602;85;21300;-70
2023/09/18 00:59:59;;;;;;;9.43;6.83;;;;;;;15.04;70.58;101124.85;1663690;86;21066;-70
2023/09/18 01:02:27;;;;;;;11.08;6.70;;;;;;;15.04;70.63;101121.23;1663625;86;21176;-71
2023/09/18 01:04:56;;;;;;;9.90;7.03;;;;;;;15.01;70.67;101120.28;1663547;85;21050;-70
2023/09/18 01:07:26;;;;;;;10.25;6.97;;;;;;;15.01;70.69;101122.51;1663531;86;21074;-70
2023/09/18 01:09:57;;;;;;;10.65;7.20;;;;;;;15.02;70.71;101120.07;1663970;85;21029;-70
2023/09/18 01:12:43;;;;;;;12.45;7.17;;;;;;;15.02;70.61;101115.93;1663564;85;21096;-71
2023/09/18 01:15:23;;;;;;;10.58;6.72;;;;;;;15.02;70.63;101116.45;1663544;85;21249;-71
2023/09/18 01:17:52;;;;;;;11.15;7.05;;;;;;;15.05;70.65;101116.04;1644963;86;21070;-71
2023/09/18 01:20:22;;;;;;;9.95;6.53;;;;;;;15.06;70.60;101117.73;1663723;86;21490;-71
2023/09/18 01:22:51;;;;;;;9.65;6.70;;;;;;;15.07;70.55;101113.39;1663467;86;21103;-70
2023/09/18 01:25:20;;;;;;;11.18;6.97;;;;;;;15.09;70.52;101120.08;1663586;86;21069;-70
2023/09/18 01:27:49;;;;;;;11.88;7.10;;;;;;;15.10;70.65;101120.41;1663757;86;21064;-70
2023/09/18 01:30:18;;;;;;;12.40;7.35;;;;;;;15.11;70.63;101119.34;1663556;86;21034;-71
2023/09/18 01:32:47;;;;;;;12.47;7.58;;;;;;;15.13;70.58;101122.74;1663678;86;21112;-71
2023/09/18 01:35:16;;;;;;;12.75;7.45;;;;;;;15.15;70.60;101120.63;1663610;86;21202;-69
2023/09/18 01:37:46;;;;;;;11.50;7.62;;;;;;;15.17;70.54;101115.20;1663787;86;21078;-71
2023/09/18 01:40:15;;;;;;;10.05;7.00;;;;;;;15.20;70.46;101112.55;1663576;86;21038;-71
2023/09/18 01:42:43;;;;;;;14.25;6.70;;;;;;;15.20;70.46;101112.55;1673896;84;21189;-72
2023/09/18 01:45:13;;;;;;;10.08;7.30;;;;;;;15.21;70.07;101100.45;1686867;84;21891;-69
2023/09/18 01:47:42;;;;;;;11.53;7.70;;;;;;;15.25;70.09;101107.25;1697845;84;21089;-70
2023/09/18 01:50:11;;;;;;;11.20;7.03;;;;;;;15.29;70.03;101103.54;1697949;84;21089;-71
2023/09/18 01:52:41;;;;;;;13.15;7.03;;;;;;;15.32;69.92;101105.34;1698044;84;21090;-70
2023/09/18 01:55:12;;;;;;;10.32;7.17;;;;;;;15.31;69.90;101099.50;1698025;84;21105;-69
2023/09/18 01:57:42;;;;;;;10.10;7.20;;;;;;;15.32;69.92;101110.87;1697978;84;21074;-70
2023/09/18 02:00:13;;;;;;;11.97;7.12;;;;;;;15.33;69.98;101109.80;1698222;84;21065;-69
2023/09/18 02:02:42;;;;;;;10.93;6.95;;;;;;;15.36;69.90;101108.00;1697875;84;21511;-70
2023/09/18 02:05:15;;;;;;;9.98;6.92;;;;;;;15.35;69.86;101096.64;1667156;84;21109;-70
2023/09/18 02:07:44;;;;;;;10.50;7.37;;;;;;;15.37;69.88;101101.95;1698031;84;21093;-71
2023/09/18 02:10:14;;;;;;;9.35;6.78;;;;;;;15.40;69.91;101100.14;1698014;84;21026;-70
2023/09/18 02:12:43;;;;;;;11.80;7.60;;;;;;;15.42;69.93;101095.26;1697813;84;21069;-71
2023/09/18 02:15:13;;;;;;;9.78;7.33;;;;;;;15.42;69.90;101091.11;1697818;84;21112;-70
2023/09/18 02:17:43;;;;;;;9.73;6.80;;;;;;;15.43;69.93;101091.43;1698084;84;21022;-71
2023/09/18 02:20:12;;;;;;;11.22;7.00;;;;;;;15.42;69.92;101096.11;1698094;84;21077;-71
2023/09/18 02:22:40;;;;;;;12.05;7.10;;;;;;;15.38;69.94;101093.98;1697971;84;21129;-70
2023/09/18 02:25:09;;;;;;;11.30;7.05;;;;;;;15.36;69.97;101095.58;1698039;84;21121;-70
2023/09/18 02:27:38;;;;;;;11.53;6.75;;;;;;;15.37;70.11;101100.04;1678517;85;21091;-69
2023/09/18 02:30:09;;;;;;;10.40;7.05;;;;;;;15.39;70.10;101096.53;1678524;85;21079;-70
2023/09/18 02:32:37;;;;;;;9.30;6.47;;;;;;;15.42;70.08;101097.48;1678281;85;21047;-71
2023/09/18 02:35:08;;;;;;;8.93;6.85;;;;;;;15.44;70.09;101099.50;1678277;85;21095;-70
2023/09/18 02:37:37;;;;;;;9.53;7.00;;;;;;;15.43;70.08;101095.05;1678318;85;21083;-71
2023/09/18 02:40:07;;;;;;;9.30;6.60;;;;;;;15.42;70.07;101094.73;1678572;85;21046;-71
2023/09/18 02:42:36;;;;;;;10.90;6.85;;;;;;;15.41;70.07;101087.50;1678267;85;21098;-70
2023/09/18 02:45:08;;;;;;;10.00;6.50;;;;;;;15.40;70.02;101087.19;1671524;85;21062;-70
2023/09/18 02:47:40;;;;;;;10.60;6.70;;;;;;;15.38;70.06;101087.92;1653685;86;21054;-70
2023/09/18 02:50:10;;;;;;;10.18;7.12;;;;;;;15.38;70.12;101086.55;1653972;86;21070;-69
2023/09/18 02:52:39;;;;;;;10.15;6.60;;;;;;;15.34;70.25;101083.89;1653853;86;21076;-70
2023/09/18 02:55:09;;;;;;;12.65;7.15;;;;;;;15.30;70.48;101084.53;1653930;86;21093;-71
2023/09/18 02:57:38;;;;;;;11.63;7.53;;;;;;;15.29;70.67;101089.20;1611313;89;21067;-70
2023/09/18 03:00:09;;;;;;;12.28;6.90;;;;;;;15.30;70.73;101084.00;1635494;88;21091;-72
2023/09/18 03:02:38;;;;;;;10.45;6.90;;;;;;;15.30;70.71;101075.71;1635354;88;21070;-70
2023/09/18 03:05:09;;;;;;;9.18;6.55;;;;;;;15.29;70.72;101075.39;1635661;88;21113;-69
2023/09/18 03:07:38;;;;;;;12.00;6.80;;;;;;;15.27;70.72;101083.05;1635405;86;21543;-69
2023/09/18 03:10:13;;;;;;;11.80;6.67;;;;;;;15.26;70.70;101079.96;1615760;88;21102;-70
2023/09/18 03:12:41;;;;;;;9.43;6.67;;;;;;;15.27;70.70;101074.76;1635306;88;21153;-68
2023/09/18 03:15:11;;;;;;;13.10;6.92;;;;;;;15.25;70.73;101079.64;1635497;88;21138;-68
2023/09/18 03:17:42;;;;;;;10.15;7.20;;;;;;;15.19;70.73;101077.20;1635577;88;21123;-69
2023/09/18 03:20:12;;;;;;;8.23;6.45;;;;;;;15.17;70.77;101086.22;1635401;88;21079;-70
2023/09/18 03:22:41;;;;;;;10.95;7.40;;;;;;;15.17;70.81;101081.23;1637161;86;21126;-69
2023/09/18 03:25:10;;;;;;;9.63;6.78;;;;;;;15.15;70.85;101082.83;1635452;86;21102;-69
2023/09/18 03:27:39;;;;;;;10.03;6.80;;;;;;;15.15;70.94;101077.83;1635417;88;21507;-70
2023/09/18 03:30:12;;;;;;;10.95;6.20;;;;;;;15.13;70.95;101081.34;1635423;86;21577;-70
2023/09/18 03:32:41;;;;;;;10.72;6.90;;;;;;;15.08;70.98;101082.50;1635453;88;21587;-69
2023/09/18 03:35:19;;;;;;;10.95;6.90;;;;;;;15.04;71.05;101079.84;1635369;88;21094;-69
2023/09/18 03:37:51;;;;;;;11.50;7.03;;;;;;;15.00;71.01;101078.56;1635624;87;21123;-70
2023/09/18 03:40:20;;;;;;;11.03;6.90;;;;;;;14.98;71.13;101083.44;1615961;88;21086;-68
2023/09/18 03:42:49;;;;;;;13.48;6.92;;;;;;;14.97;71.24;101088.64;1635377;88;21230;-70
2023/09/18 03:45:19;;;;;;;13.45;7.17;;;;;;;14.97;71.29;101085.35;1638419;86;21074;-70
2023/09/18 03:47:50;;;;;;;8.43;6.50;;;;;;;14.97;71.21;101081.73;1697871;84;21117;-71
2023/09/18 03:50:19;;;;;;;12.43;6.78;;;;;;;14.98;71.19;101079.30;1697838;84;21365;-70
2023/09/18 03:52:48;;;;;;;11.12;6.37;;;;;;;14.98;71.15;101083.44;1697964;84;21010;-70
2023/09/18 03:55:16;;;;;;;10.05;7.08;;;;;;;14.97;71.08;101076.22;1698041;84;21010;-70
2023/09/18 03:57:47;;;;;;;9.45;6.95;;;;;;;14.97;71.12;101090.87;1697989;84;21050;-69
2023/09/18 04:00:16;;;;;;;11.45;7.50;;;;;;;14.97;71.00;101087.26;1697882;84;21543;-69
2023/09/18 04:02:46;;;;;;;13.18;7.62;;;;;;;14.97;71.14;101087.26;1697918;84;21471;-69
2023/09/18 04:05:15;;;;;;;11.15;7.42;;;;;;;14.98;71.18;101086.20;1698009;84;21496;-70
2023/09/18 04:07:47;;;;;;;12.30;6.78;;;;;;;15.00;71.02;101092.36;1697860;84;21062;-69
2023/09/18 04:10:22;;;;;;;9.80;6.97;;;;;;;15.00;70.88;101090.98;1697879;84;21042;-69
2023/09/18 04:12:51;;;;;;;14.07;7.70;;;;;;;14.99;70.81;101091.52;1697650;84;21101;-70
2023/09/18 04:15:23;;;;;;;11.28;6.95;;;;;;;15.00;70.86;101095.13;1697962;84;21030;-69
2023/09/18 04:17:51;;;;;;;22.45;12.65;;;;;;;15.01;70.70;101088.54;1669176;84;21090;-70
2023/09/18 04:20:20;;;;;;;11.50;7.97;;;;;;;15.01;70.66;101094.06;1698009;84;21057;-72
2023/09/18 04:23:11;;;;;;;12.65;7.17;;;;;;;15.03;70.67;101095.55;1697916;84;21113;-68
2023/09/18 04:25:41;;;;;;;22.40;8.03;;;;;;;15.05;70.55;101086.53;1678209;85;21607;-69
2023/09/18 04:28:11;;;;;;;12.00;7.30;;;;;;;15.05;70.50;101090.67;1678462;85;21079;-71
2023/09/18 04:30:40;;;;;;;13.05;7.40;;;;;;;15.02;70.59;101091.09;1678131;85;21043;-71
2023/09/18 04:33:08;;;;;;;14.55;7.45;;;;;;;15.00;70.73;101095.13;1678189;85;21580;-70
2023/09/18 04:35:39;;;;;;;13.75;6.92;;;;;;;14.99;70.89;101090.66;1678445;85;21046;-70
2023/09/18 04:38:10;;;;;;;11.65;7.50;;;;;;;15.00;70.94;101090.45;1678630;85;21043;-70
2023/09/18 04:40:40;;;;;;;13.65;8.20;;;;;;;15.01;71.05;101089.92;1678223;85;21486;-70
2023/09/18 04:43:10;;;;;;;11.30;7.80;;;;;;;15.01;71.03;101094.06;1678313;85;21098;-71
2023/09/18 04:45:38;;;;;;;12.40;7.28;;;;;;;15.00;71.06;101086.31;1677195;85;21067;-70
2023/09/18 04:48:08;;;;;;;14.40;8.40;;;;;;;15.01;71.07;101088.54;1663626;85;21053;-70
2023/09/18 04:50:38;;;;;;;13.43;8.43;;;;;;;15.00;71.07;101092.36;1663542;86;21081;-70
2023/09/18 04:53:08;;;;;;;13.55;7.95;;;;;;;15.01;70.99;101095.44;1663411;86;21588;-69
2023/09/18 04:55:41;;;;;;;17.52;8.75;;;;;;;15.03;70.83;101096.08;1663540;86;21541;-70
2023/09/18 04:58:11;;;;;;;19.70;11.80;;;;;;;15.08;70.71;101090.78;1663837;85;21006;-70
2023/09/18 05:00:40;;;;;;;16.97;9.70;;;;;;;15.13;70.61;101099.28;1663429;86;21057;-70
2023/09/18 05:03:10;;;;;;;14.90;9.00;;;;;;;15.18;70.47;101100.88;1663569;86;21193;-70
2023/09/18 05:05:39;;;;;;;17.48;8.80;;;;;;;15.22;70.30;101095.25;1663864;85;21046;-70
2023/09/18 05:08:09;;;;;;;15.45;7.72;;;;;;;15.25;70.10;101096.74;1663439;86;21058;-70
2023/09/18 05:10:39;;;;;;;16.90;9.13;;;;;;;15.29;69.84;101095.25;1663774;86;21520;-71
2023/09/18 05:13:11;;;;;;;33.28;9.48;;;;;;;15.34;69.45;101088.56;1663756;85;21081;-69
2023/09/18 05:15:40;;;;;;;51.13;10.13;;;;;;;15.38;69.13;101093.45;1663484;86;21547;-71
2023/09/18 05:18:09;;;;;;;14.25;8.23;;;;;;;15.43;68.91;101096.42;1663725;86;21050;-69
2023/09/18 05:20:40;;;;;;;13.05;7.90;;;;;;;15.46;68.53;101097.38;1663613;85;21085;-72
2023/09/18 05:23:09;;;;;;;15.95;8.88;;;;;;;15.51;68.04;101096.20;1663653;85;21113;-72
2023/09/18 05:25:41;;;;;;;14.23;7.97;;;;;;;15.55;67.68;101093.88;1663690;86;21022;-71
2023/09/18 05:28:10;;;;;;;15.35;8.58;;;;;;;15.64;67.09;101101.47;1663627;86;21116;-70
2023/09/18 05:30:40;;;;;;;13.62;7.87;;;;;;;15.69;66.53;101098.92;1663575;86;21042;-70
2023/09/18 05:33:09;;;;;;;9.88;7.37;;;;;;;15.74;65.96;101104.12;1663723;86;21137;-71
2023/09/18 05:35:44;;;;;;;13.30;8.40;;;;;;;15.80;65.49;101099.64;1663670;86;21133;-71
2023/09/18 05:38:13;;;;;;;14.73;7.87;;;;;;;15.85;65.14;101102.61;1663433;86;21458;-70
2023/09/18 05:40:44;;;;;;;15.75;8.23;;;;;;;15.91;64.96;101098.98;1663561;86;21097;-70
2023/09/18 05:43:14;;;;;;;15.32;8.60;;;;;;;15.97;64.74;101100.04;1663681;86;21021;-69
2023/09/18 05:45:42;;;;;;;12.85;8.10;;;;;;;16.02;64.45;101099.70;1663581;86;21062;-71
2023/09/18 05:48:11;;;;;;;13.25;7.90;;;;;;;16.07;64.23;101100.44;1632459;88;21071;-72
2023/09/18 05:50:41;;;;;;;11.70;7.78;;;;;;;16.12;64.08;101090.95;1610048;89;21575;-70
2023/09/18 05:53:11;;;;;;;14.65;7.92;;;;;;;16.17;63.95;101096.16;1641423;87;21581;-70
2023/09/18 05:55:40;;;;;;;11.25;7.40;;;;;;;16.21;63.54;101103.48;1610302;88;21026;-71
2023/09/18 05:58:08;;;;;;;11.90;7.60;;;;;;;16.24;63.37;101089.22;1641490;87;21098;-70
2023/09/18 06:00:37;;;;;;;16.62;8.60;;;;;;;16.29;63.26;101096.35;1639333;86;21110;-71
2023/09/18 06:03:06;;;;;;;10.32;7.42;;;;;;;16.35;63.17;101094.63;1610193;89;21070;-71
2023/09/18 06:05:35;;;;;;;11.68;7.30;;;;;;;16.40;63.00;101098.44;1641345;87;21078;-69
2023/09/18 06:08:05;;;;;;;10.45;7.60;;;;;;;16.46;62.85;101095.33;1639486;87;21118;-70
2023/09/18 06:10:37;;;;;;;17.37;7.95;;;;;;;16.51;62.58;101094.14;1610151;89;21520;-71
2023/09/18 06:13:05;;;;;;;13.98;6.97;;;;;;;16.55;62.41;101088.48;1641535;87;21129;-70
2023/09/18 06:15:34;;;;;;;12.90;7.87;;;;;;;16.61;62.28;101090.89;1639527;87;21094;-70
2023/09/18 06:18:06;;;;;;;12.18;7.40;;;;;;;16.66;62.18;101085.58;1609992;89;21498;-70
2023/09/18 06:20:36;;;;;;;12.15;7.53;;;;;;;16.72;62.07;101092.47;1641636;87;21095;-70
2023/09/18 06:23:06;;;;;;;12.05;7.60;;;;;;;16.77;61.82;101088.50;1639534;87;21490;-71
2023/09/18 06:25:35;;;;;;;14.25;7.50;;;;;;;16.84;61.68;101088.99;1610064;88;21482;-70
2023/09/18 06:28:05;;;;;;;13.20;7.08;;;;;;;16.91;61.55;101092.60;1641459;87;21587;-70
2023/09/18 06:30:36;;;;;;;13.83;6.97;;;;;;;16.97;61.53;101085.63;1639230;86;21162;-70
2023/09/18 06:33:05;;;;;;;11.68;7.42;;;;;;;17.03;61.45;101085.28;1610150;89;21079;-72
2023/09/18 06:35:35;;;;;;;13.58;7.12;;;;;;;17.09;61.28;101087.16;1641762;87;21106;-71
2023/09/18 06:38:06;;;;;;;10.40;7.12;;;;;;;17.16;61.10;101092.64;1639341;87;21110;-72
2023/09/18 06:40:35;;;;;;;10.32;7.40;;;;;;;17.23;61.03;101092.91;1610081;89;21097;-71
2023/09/18 06:43:04;;;;;;;15.03;7.10;;;;;;;17.30;60.82;101095.63;1641267;87;21074;-72
2023/09/18 06:45:33;;;;;;;16.80;8.58;;;;;;;17.36;60.86;101095.57;1610351;89;21074;-72
2023/09/18 06:48:03;;;;;;;14.53;7.55;;;;;;;17.43;60.70;101091.36;1657053;85;21050;-70
2023/09/18 06:50:31;;;;;;;19.40;7.12;;;;;;;17.50;60.55;101094.07;1660845;86;21471;-69
2023/09/18 06:53:01;;;;;;;10.95;7.05;;;;;;;17.58;60.44;101096.59;1660958;86;21057;-72
2023/09/18 06:55:30;;;;;;;8.65;5.97;;;;;;;17.65;60.33;101099.61;1668157;86;21042;-70
2023/09/18 06:57:58;;;;;;;10.88;7.00;;;;;;;17.73;60.10;101102.13;1653723;87;21074;-70
2023/09/18 07:00:28;;;;;;;9.65;6.55;;;;;;;17.79;60.12;101096.20;1625844;88;21060;-74
2023/09/18 07:02:58;;;;;;;11.70;6.72;;;;;;;17.86;59.88;101093.38;1639833;87;21479;-70
2023/09/18 07:05:27;;;;;;;11.85;7.47;;;;;;;17.93;59.81;101099.16;1676607;85;21095;-71
2023/09/18 07:07:57;;;;;;;13.05;7.30;;;;;;;18.00;59.63;101096.31;1676717;85;21047;-71
2023/09/18 07:10:26;;;;;;;9.43;6.85;;;;;;;18.06;59.76;101098.17;1675321;85;21071;-72
2023/09/18 07:12:56;;;;;;;10.15;6.90;;;;;;;18.11;59.50;101095.55;1676582;85;21051;-72
2023/09/18 07:15:25;;;;;;;14.53;6.80;;;;;;;18.18;59.38;101096.86;1676504;85;21102;-71
2023/09/18 07:17:53;;;;;;;10.63;6.10;;;;;;;18.26;59.00;101095.20;1676799;85;21307;-72
2023/09/18 07:20:23;;;;;;;10.45;6.15;;;;;;;18.35;58.63;101095.20;1676633;85;21071;-72
2023/09/18 07:22:53;;;;;;;9.43;6.05;;;;;;;18.46;58.38;101090.79;1676770;85;21133;-71
2023/09/18 07:25:22;;;;;;;8.03;5.53;;;;;;;18.55;58.02;101085.23;1676615;85;21062;-71
2023/09/18 07:27:50;;;;;;;9.88;6.90;;;;;;;18.63;57.84;101087.72;1676660;85;21099;-70
2023/09/18 07:30:21;;;;;;;11.93;6.47;;;;;;;18.69;57.79;101089.02;1676912;85;21039;-71
2023/09/18 07:32:51;;;;;;;10.95;6.00;;;;;;;18.76;57.76;101083.37;1676534;85;21477;-70
2023/09/18 07:35:20;;;;;;;10.63;6.25;;;;;;;18.82;57.67;101085.74;1676749;85;21091;-70
2023/09/18 07:37:48;;;;;;;11.08;6.75;;;;;;;18.90;57.66;101077.11;1676815;85;21020;-70
2023/09/18 07:40:17;;;;;;;9.48;6.10;;;;;;;18.96;57.51;101079.80;1676770;85;21099;-70
2023/09/18 07:42:45;;;;;;;10.25;6.03;;;;;;;19.04;57.15;101081.93;1676701;85;21405;-71
2023/09/18 07:45:14;;;;;;;9.05;5.47;;;;;;;19.12;56.76;101075.49;1676710;85;21107;-71
2023/09/18 07:47:43;;;;;;;9.25;5.65;;;;;;;19.22;56.21;101078.53;1676767;85;21506;-70
2023/09/18 07:50:12;;;;;;;9.40;5.55;;;;;;;19.44;55.97;101080.20;1677018;85;21047;-69
2023/09/18 07:52:42;;;;;;;11.53;5.90;;;;;;;19.85;55.46;101082.09;1677022;85;21110;-70
2023/09/18 07:55:11;;;;;;;7.55;5.65;;;;;;;20.36;54.68;101082.42;1677018;85;21086;-71
2023/09/18 07:57:41;;;;;;;8.40;5.37;;;;;;;20.85;53.67;101079.03;1677336;85;21071;-71
2023/09/18 08:00:13;;;;;;;8.70;5.10;;;;;;;21.40;52.52;101081.17;1677145;85;21118;-71
2023/09/18 08:02:42;;;;;;;20.90;6.50;;;;;;;21.99;50.56;101080.19;1677271;85;21118;-71
2023/09/18 08:05:12;;;;;;;8.23;5.15;;;;;;;22.54;48.90;101075.13;1695255;83;21494;-67
2023/09/18 08:07:42;;;;;;;7.58;4.80;;;;;;;23.05;47.95;101076.59;1692999;83;21467;-69
2023/09/18 08:10:13;;;;;;;7.20;5.10;;;;;;;23.57;46.28;101070.97;1694923;84;21049;-69
2023/09/18 08:12:42;;;;;;;9.28;5.47;;;;;;;24.10;44.66;101069.96;1700465;83;21086;-70
2023/09/18 08:15:11;;;;;;;5.70;4.83;;;;;;;24.57;43.93;101064.88;1699504;83;21023;-75
2023/09/18 08:17:40;;;;;;;6.25;4.65;;;;;;;25.03;42.11;101056.09;1682855;85;21007;-74
2023/09/18 08:20:15;;;;;;;6.42;4.70;;;;;;;25.46;40.80;101057.56;1683080;85;21039;-74
2023/09/18 08:22:43;;;;;;;10.43;5.20;;;;;;;25.82;39.88;101057.55;1711358;83;21055;-74
2023/09/18 08:25:13;;;;;;;7.10;4.67;;;;;;;26.17;39.32;101061.72;1717143;83;21086;-75
2023/09/18 08:27:43;;;;;;;7.70;5.08;;;;;;;26.50;38.33;101054.59;1717321;83;21066;-75
2023/09/18 08:30:14;;;;;;;7.87;4.85;;;;;;;26.74;38.00;101059.00;1716784;83;21018;-74
2023/09/18 08:32:43;;;;;;;8.90;5.35;;;;;;;26.97;37.68;101046.77;1689095;83;21038;-74
2023/09/18 08:35:12;;;;;;;7.47;4.87;;;;;;;27.19;37.45;101055.64;1717026;83;21479;-74
2023/09/18 08:37:46;;;;;;;8.88;5.28;;;;;;;27.36;36.36;101049.06;1716695;83;21571;-76
2023/09/18 08:40:16;;;;;;;9.00;6.17;;;;;;;27.45;36.35;101055.75;1716837;83;21132;-75
2023/09/18 08:42:47;;;;;;;10.98;6.53;;;;;;;27.56;36.32;101050.86;1716877;83;21046;-76
2023/09/18 08:45:45;;;;;;;13.60;7.70;;;;;;;27.68;35.95;101049.09;1716731;83;21047;-76
2023/09/18 08:48:17;;;;;;;7.97;5.37;;;;;;;27.74;35.69;101047.91;1711786;83;21756;-75
2023/09/18 08:50:46;;;;;;;7.30;4.95;;;;;;;27.73;35.21;101044.83;1709007;83;21059;-75
2023/09/18 08:53:15;;;;;;;7.65;5.40;;;;;;;27.61;35.47;101033.95;1709313;84;21058;-74
2023/09/18 08:55:44;;;;;;;8.20;5.17;;;;;;;27.44;35.43;101044.78;1709363;83;21058;-77
2023/09/18 08:58:15;;;;;;;6.72;4.90;;;;;;;27.18;35.53;101040.46;1709169;83;21035;-77
2023/09/18 09:00:46;;;;;;;10.80;4.92;;;;;;;26.97;35.59;101034.11;1709251;84;21110;-77
2023/09/18 09:03:15;;;;;;;6.65;4.58;;;;;;;26.83;35.98;101034.77;1698727;83;21023;-77
2023/09/18 09:05:44;;;;;;;7.33;4.60;;;;;;;26.62;35.53;101040.77;1709242;83;21101;-75
2023/09/18 09:08:14;;;;;;;7.45;4.90;;;;;;;26.47;35.27;101043.09;1709316;83;21526;-77
2023/09/18 09:10:45;;;;;;;7.58;4.75;;;;;;;26.31;35.33;101034.41;1709223;84;21055;-75
2023/09/18 09:13:14;;;;;;;6.78;4.70;;;;;;;26.18;35.48;101032.49;1701596;83;21086;-76
2023/09/18 09:15:47;;;;;;;9.83;5.95;;;;;;;26.08;36.07;101026.91;1692959;84;21102;-74
2023/09/18 09:18:16;;;;;;;7.00;4.40;;;;;;;26.00;35.92;101028.03;1695530;83;21022;-73
2023/09/18 09:21:01;;;;;;;9.20;5.15;;;;;;;25.89;36.22;101027.22;1695597;83;22018;-76
2023/09/18 09:23:45;;;;;;;10.15;5.60;;;;;;;25.75;35.91;101024.72;1695571;84;21094;-77
2023/09/18 09:26:16;;;;;;;5.17;4.50;;;;;;;25.63;35.95;101027.80;1695477;83;21077;-77
2023/09/18 09:28:46;;;;;;;8.05;4.92;;;;;;;25.51;35.57;101028.66;1695594;84;21158;-76
2023/09/18 09:31:27;;;;;;;7.72;4.70;;;;;;;25.41;35.57;101028.66;1695773;84;21049;-75
2023/09/18 09:33:58;;;;;;;5.22;4.20;;;;;;;25.34;35.99;101021.90;1695600;84;21117;-75
2023/09/18 09:36:27;;;;;;;10.50;4.58;;;;;;;25.30;35.74;101016.56;1695797;83;20994;-76
2023/09/18 09:38:57;;;;;;;7.55;4.22;;;;;;;25.21;35.16;101016.28;1695565;84;21505;-74
2023/09/18 09:41:29;;;;;;;5.40;4.30;;;;;;;25.11;35.21;101016.28;1695632;83;21027;-73
2023/09/18 09:43:59;;;;;;;8.10;4.15;;;;;;;25.07;34.99;101014.31;1700916;84;21482;-75
2023/09/18 09:46:28;;;;;;;5.87;4.40;;;;;;;25.02;35.26;101009.55;1695676;84;21058;-75
2023/09/18 09:49:04;;;;;;;7.10;4.47;;;;;;;25.01;35.38;101002.81;1700716;84;21050;-75
2023/09/18 09:51:34;;;;;;;9.00;4.20;;;;;;;25.03;35.25;100997.20;1687818;85;21081;-75
2023/09/18 09:54:03;;;;;;;5.85;3.95;;;;;;;25.01;35.35;100999.45;1687483;85;21045;-74
2023/09/18 09:56:48;;;;;;;7.67;4.87;;;;;;;24.95;35.41;101002.78;1687435;84;21070;-76
2023/09/18 09:59:19;;;;;;;6.10;3.85;;;;;;;24.90;35.25;100994.36;1687340;85;21076;-75
2023/09/18 10:01:50;;;;;;;8.23;4.65;;;;;;;24.85;35.30;100994.36;1694621;84;21086;-74
2023/09/18 10:04:21;;;;;;;6.25;4.00;;;;;;;24.84;35.72;100990.43;1687656;85;21045;-74
2023/09/18 10:06:59;;;;;;;7.25;4.20;;;;;;;24.85;35.51;100994.36;1687428;84;21776;-75
2023/09/18 10:09:29;;;;;;;11.53;4.45;;;;;;;24.83;35.05;100985.94;1687349;85;21500;-76
2023/09/18 10:12:01;;;;;;;6.08;4.53;;;;;;;24.75;35.71;100983.13;1686371;85;21470;-75
2023/09/18 10:14:34;;;;;;;5.92;4.33;;;;;;;24.76;35.68;100984.81;1634125;88;21080;-75
2023/09/18 10:17:19;;;;;;;10.20;4.53;;;;;;;24.81;35.74;100981.17;1634354;87;21571;-76
2023/09/18 10:20:16;;;;;;;6.05;3.90;;;;;;;24.76;35.08;100979.77;1648113;87;21480;-74
2023/09/18 10:22:42;;;;;;;6.60;4.40;;;;;;;24.72;35.16;100969.67;1648238;86;21499;-75
2023/09/18 10:25:24;;;;;;;7.55;4.65;;;;;;;24.70;35.27;100983.65;1647997;87;21483;-75
2023/09/18 10:27:53;;;;;;;7.95;4.45;;;;;;;24.72;35.13;100989.84;1648124;86;21108;-72
2023/09/18 10:30:23;;;;;;;7.10;4.42;;;;;;;24.72;35.16;100976.67;1647985;86;21020;-75
2023/09/18 10:32:53;;;;;;;8.60;4.67;;;;;;;24.70;35.21;100970.48;1647945;86;21520;-76
2023/09/18 10:35:23;;;;;;;6.12;4.10;;;;;;;24.66;34.87;100967.38;1634027;87;21106;-73
2023/09/18 10:37:53;;;;;;;9.60;4.45;;;;;;;24.62;35.23;100969.63;1648055;87;21060;-75
2023/09/18 10:40:23;;;;;;;5.47;4.10;;;;;;;24.60;35.27;100973.26;1648025;87;21031;-74
2023/09/18 10:42:51;;;;;;;7.12;4.50;;;;;;;24.61;35.38;100967.94;1633997;86;21566;-75
2023/09/18 10:45:20;;;;;;;4.80;4.28;;;;;;;24.64;35.60;100971.59;1647918;87;21553;-75
2023/09/18 10:47:50;;;;;;;8.15;4.62;;;;;;;24.68;35.46;100954.50;1647961;86;21056;-73
2023/09/18 10:50:28;;;;;;;6.42;4.20;;;;;;;24.76;35.28;100970.80;1616634;87;21096;-74
2023/09/18 10:53:01;;;;;;;6.90;4.22;;;;;;;24.81;35.24;100968.00;1659986;86;21497;-75
2023/09/18 10:55:33;;;;;;;6.17;4.08;;;;;;;24.84;35.46;100961.83;1660158;86;21181;-76
2023/09/18 10:58:03;;;;;;;9.18;4.35;;;;;;;24.85;35.51;100962.67;1643724;86;21116;-76
2023/09/18 11:00:36;;;;;;;7.70;4.62;;;;;;;24.85;35.57;100959.31;1660193;86;21511;-75
2023/09/18 11:03:17;;;;;;;4.55;3.70;;;;;;;24.83;35.54;100955.95;1660170;86;21078;-76
2023/09/18 11:05:46;;;;;;;8.98;6.53;;;;;;;24.80;35.34;100952.86;1644115;86;21086;-75
2023/09/18 11:08:27;;;;;;;8.70;4.37;;;;;;;24.75;35.38;100950.05;1637032;85;21064;-76
2023/09/18 11:11:11;;;;;;;8.03;3.98;;;;;;;24.75;35.57;100946.69;1660135;86;21536;-77
2023/09/18 11:13:43;;;;;;;7.80;4.17;;;;;;;24.77;35.27;100945.84;1675143;85;21058;-77
2023/09/18 11:16:29;;;;;;;4.87;4.05;;;;;;;24.78;35.60;100943.89;1678637;84;21071;-78
2023/09/18 11:19:07;;;;;;;7.45;4.45;;;;;;;24.81;35.53;100948.38;1678339;85;21090;-76
2023/09/18 11:21:36;;;;;;;5.95;4.00;;;;;;;24.84;35.34;100942.21;1678514;84;21606;-74
2023/09/18 11:24:11;;;;;;;6.00;4.17;;;;;;;24.83;35.29;100937.73;1678575;85;21043;-77
2023/09/18 11:26:42;;;;;;;8.20;4.17;;;;;;;24.82;34.99;100931.84;1678163;85;21019;-76
2023/09/18 11:29:13;;;;;;;10.03;4.25;;;;;;;24.76;34.83;100928.75;1678418;85;21019;-76
2023/09/18 11:31:50;;;;;;;8.68;3.58;;;;;;;24.70;34.97;100934.04;1678622;84;21086;-76
2023/09/18 11:34:31;;;;;;;5.90;3.80;;;;;;;24.66;35.00;100930.11;1678566;85;21121;-76